Time;durP1;ratioP1;P1;durP2;ratioP2;P2;SDS_P1;SDS_P2;PMS_P1;PMS_P2;Temp;Humidity;BMP_temperature;BMP_pressure;BME280_temperature;BME280_humidity;BME280_pressure;Samples;Min_cycle;Max_cycle;Signal;HPM_P1;HPM_P2
2021/08/12 00:02:04;;;;;;;6.03;4.55;;;;;;;19.22;76.66;97840.92;1805243;79;20983;-81
2021/08/12 00:04:31;;;;;;;7.47;4.37;;;;;;;19.20;76.83;97840.18;1804315;79;21027;-80
2021/08/12 00:06:59;;;;;;;6.00;4.37;;;;;;;19.21;76.75;97836.99;1804220;79;21046;-81
2021/08/12 00:09:25;;;;;;;5.70;4.40;;;;;;;19.23;76.52;97839.11;1773581;79;21039;-81
2021/08/12 00:11:52;;;;;;;5.10;4.60;;;;;;;19.24;76.47;97838.14;1795671;80;20967;-81
2021/08/12 00:14:18;;;;;;;5.53;4.92;;;;;;;19.29;76.38;97844.53;1795442;80;21457;-80
2021/08/12 00:16:44;;;;;;;5.33;4.22;;;;;;;19.30;76.29;97843.09;1773081;81;20975;-81
2021/08/12 00:19:13;;;;;;;5.37;4.12;;;;;;;19.31;76.60;97843.45;1795638;80;20975;-81
2021/08/12 00:21:42;;;;;;;7.05;4.12;;;;;;;19.35;76.44;97836.08;1772820;81;21450;-80
2021/08/12 00:24:08;;;;;;;5.72;4.28;;;;;;;19.37;75.92;97837.69;1795663;80;21436;-80
2021/08/12 00:26:35;;;;;;;6.67;4.25;;;;;;;19.35;76.01;97837.42;1773039;81;21039;-80
2021/08/12 00:29:04;;;;;;;6.00;4.45;;;;;;;19.34;76.10;97836.55;1795078;80;20944;-80
2021/08/12 00:31:32;;;;;;;6.10;4.67;;;;;;;19.28;76.37;97839.66;1771389;81;20967;-80
2021/08/12 00:33:59;;;;;;;5.20;4.42;;;;;;;19.29;76.14;97845.88;1771284;81;20994;-80
2021/08/12 00:36:26;;;;;;;5.22;4.70;;;;;;;19.31;75.38;97852.02;1793728;80;20987;-80
2021/08/12 00:38:54;;;;;;;6.42;4.42;;;;;;;19.33;75.14;97857.67;1793913;80;20956;-80
2021/08/12 00:41:23;;;;;;;8.10;4.92;;;;;;;19.33;75.05;97849.61;1793579;80;21425;-80
2021/08/12 00:43:50;;;;;;;6.85;4.85;;;;;;;19.34;74.89;97845.95;1793918;80;20928;-80
2021/08/12 00:46:17;;;;;;;7.85;4.80;;;;;;;19.32;74.77;97842.52;1793827;80;20965;-81
2021/08/12 00:48:44;;;;;;;6.25;4.62;;;;;;;19.31;74.62;97849.34;1795293;80;21413;-80
2021/08/12 00:51:11;;;;;;;5.85;4.97;;;;;;;19.30;75.05;97847.12;1793883;80;20999;-80
2021/08/12 00:53:38;;;;;;;5.62;4.92;;;;;;;19.28;74.96;97853.56;1793759;80;20973;-80
2021/08/12 00:56:08;;;;;;;5.97;5.00;;;;;;;19.24;74.38;97833.64;1787304;80;20993;-80
2021/08/12 00:58:35;;;;;;;5.85;4.62;;;;;;;19.21;74.44;97831.15;1790297;80;20968;-80
2021/08/12 01:01:03;;;;;;;8.30;5.40;;;;;;;19.15;74.93;97845.47;1791871;80;20941;-80
2021/08/12 01:03:29;;;;;;;6.47;4.90;;;;;;;19.08;74.95;97842.34;1791785;80;20969;-80
2021/08/12 01:05:58;;;;;;;8.23;4.90;;;;;;;18.98;76.27;97841.57;1791829;80;21040;-80
2021/08/12 01:09:13;;;;;;;6.35;4.90;;;;;;;18.94;75.39;97833.34;1791926;80;20980;-80
2021/08/12 01:11:45;;;;;;;8.30;4.80;;;;;;;18.87;77.39;97828.01;1789034;79;21400;-81
2021/08/12 01:14:41;;;;;;;8.30;5.00;;;;;;;18.74;77.59;97841.39;1790179;80;21031;-80
2021/08/12 01:17:13;;;;;;;5.85;4.60;;;;;;;18.64;78.24;97837.09;1790226;80;20977;-81
2021/08/12 01:20:07;;;;;;;6.40;4.65;;;;;;;18.64;76.60;97841.62;1791177;80;20908;-81
2021/08/12 01:22:42;;;;;;;7.10;5.40;;;;;;;18.66;77.93;97838.34;1791895;80;20971;-80
2021/08/12 01:25:15;;;;;;;8.05;5.00;;;;;;;18.63;76.77;97844.77;1789149;80;20987;-81
2021/08/12 01:27:47;;;;;;;8.18;5.10;;;;;;;18.60;76.58;97840.93;1792147;80;21165;-81
2021/08/12 01:30:17;;;;;;;5.78;5.10;;;;;;;18.62;76.35;97838.15;1790823;80;20960;-80
2021/08/12 01:33:13;;;;;;;7.15;5.67;;;;;;;18.60;76.47;97840.93;1756629;80;20980;-81
2021/08/12 01:35:41;;;;;;;8.20;4.90;;;;;;;18.57;76.10;97844.67;1761815;80;21000;-81
2021/08/12 01:38:19;;;;;;;6.37;4.70;;;;;;;18.53;76.45;97843.17;1790176;80;21393;-81
2021/08/12 01:40:50;;;;;;;6.12;4.50;;;;;;;18.55;76.33;97845.27;1789150;80;21375;-80
2021/08/12 01:43:20;;;;;;;5.50;4.22;;;;;;;18.50;79.09;97839.34;1790361;80;21454;-80
2021/08/12 01:45:53;;;;;;;7.15;4.87;;;;;;;18.49;78.47;97847.48;1790288;80;20949;-80
2021/08/12 01:48:26;;;;;;;6.58;4.50;;;;;;;18.43;78.16;97837.53;1790419;80;21445;-80
2021/08/12 01:50:53;;;;;;;6.83;4.58;;;;;;;18.40;79.82;97846.27;1789683;80;20968;-80
2021/08/12 01:53:20;;;;;;;6.25;4.53;;;;;;;18.41;78.08;97843.48;1790058;80;21013;-80
2021/08/12 01:55:51;;;;;;;6.78;4.47;;;;;;;18.43;78.13;97846.92;1786861;80;21024;-80
2021/08/12 01:58:22;;;;;;;5.45;4.25;;;;;;;18.46;77.88;97843.17;1785878;80;21012;-80
2021/08/12 02:00:51;;;;;;;8.83;4.55;;;;;;;18.50;77.87;97843.37;1787354;80;20941;-80
2021/08/12 02:03:21;;;;;;;8.05;4.58;;;;;;;18.53;77.82;97844.52;1787600;80;21339;-80
2021/08/12 02:05:50;;;;;;;6.28;4.45;;;;;;;18.54;77.80;97847.58;1787549;80;20979;-80
2021/08/12 02:08:20;;;;;;;10.18;4.50;;;;;;;18.57;77.91;97845.17;1787606;80;20984;-80
2021/08/12 02:10:51;;;;;;;6.80;4.30;;;;;;;18.55;78.46;97846.61;1785985;80;20917;-80
2021/08/12 02:13:18;;;;;;;4.83;4.10;;;;;;;18.54;78.08;97847.58;1785960;80;21004;-80
2021/08/12 02:15:45;;;;;;;7.10;4.40;;;;;;;18.54;77.90;97847.58;1786050;80;20981;-80
2021/08/12 02:18:12;;;;;;;7.53;4.92;;;;;;;18.47;78.17;97845.77;1786008;80;21008;-81
2021/08/12 02:20:41;;;;;;;6.55;4.65;;;;;;;18.43;77.80;97846.92;1787344;79;20978;-80
2021/08/12 02:23:20;;;;;;;8.28;5.53;;;;;;;18.37;79.29;97850.01;1763045;80;21449;-80
2021/08/12 02:25:54;;;;;;;8.83;5.10;;;;;;;18.24;79.60;97854.42;1784494;79;21402;-80
2021/08/12 02:28:22;;;;;;;7.47;4.97;;;;;;;18.17;79.66;97855.28;1787630;80;20994;-80
2021/08/12 02:30:52;;;;;;;9.55;5.50;;;;;;;18.03;79.64;97854.79;1785967;80;20948;-81
2021/08/12 02:33:24;;;;;;;6.75;5.15;;;;;;;17.99;79.07;97859.48;1786045;80;21027;-80
2021/08/12 02:35:53;;;;;;;9.35;5.50;;;;;;;17.96;79.46;97862.34;1785920;80;21020;-80
2021/08/12 02:38:21;;;;;;;7.83;4.95;;;;;;;17.94;79.20;97861.59;1761741;80;21011;-81
2021/08/12 02:40:51;;;;;;;7.45;5.75;;;;;;;17.88;79.34;97864.17;1787248;80;20964;-81
2021/08/12 02:43:20;;;;;;;11.50;5.78;;;;;;;17.86;80.53;97865.22;1787608;80;20956;-80
2021/08/12 02:45:48;;;;;;;9.25;5.47;;;;;;;17.83;79.84;97870.76;1787684;80;20948;-80
2021/08/12 02:48:15;;;;;;;8.13;5.03;;;;;;;17.83;80.08;97872.09;1787507;80;20956;-80
2021/08/12 02:50:45;;;;;;;7.37;5.65;;;;;;;17.83;79.81;97868.08;1786218;80;21004;-80
2021/08/12 02:53:13;;;;;;;8.13;5.08;;;;;;;17.84;79.73;97864.44;1786010;80;20972;-79
2021/08/12 02:55:41;;;;;;;6.37;5.12;;;;;;;17.83;79.56;97870.30;1791667;80;21023;-80
2021/08/12 02:58:09;;;;;;;9.10;5.40;;;;;;;17.84;78.88;97872.47;1769495;80;21386;-80
2021/08/12 03:00:37;;;;;;;7.90;5.65;;;;;;;17.80;79.57;97875.36;1795220;80;21492;-80
2021/08/12 03:03:05;;;;;;;7.70;5.30;;;;;;;17.80;78.95;97871.34;1795846;80;20964;-80
2021/08/12 03:05:35;;;;;;;7.47;5.17;;;;;;;17.82;78.73;97871.26;1766377;80;20993;-79
2021/08/12 03:08:04;;;;;;;8.83;5.60;;;;;;;17.86;79.04;97865.22;1795035;80;21538;-80
2021/08/12 03:10:31;;;;;;;8.33;5.97;;;;;;;17.88;78.84;97867.31;1795301;80;21429;-80
2021/08/12 03:13:00;;;;;;;6.42;5.03;;;;;;;17.87;79.76;97870.49;1762812;81;21382;-80
2021/08/12 03:15:28;;;;;;;8.63;5.45;;;;;;;17.89;79.99;97873.92;1762665;81;20968;-79
2021/08/12 03:17:56;;;;;;;8.50;4.83;;;;;;;17.90;79.25;97875.64;1762764;81;20983;-79
2021/08/12 03:20:27;;;;;;;6.87;5.08;;;;;;;17.91;78.84;97869.81;1786000;80;20984;-79
2021/08/12 03:22:56;;;;;;;9.45;5.17;;;;;;;17.99;78.57;97878.72;1794110;80;20956;-80
2021/08/12 03:25:25;;;;;;;12.20;10.58;;;;;;;18.06;78.55;97878.74;1794041;80;20992;-80
2021/08/12 03:27:52;;;;;;;13.85;9.20;;;;;;;18.05;79.63;97876.99;1793931;80;21003;-80
2021/08/12 03:30:20;;;;;;;7.80;5.25;;;;;;;18.06;78.99;97881.42;1794795;80;21430;-80
2021/08/12 03:32:46;;;;;;;7.72;4.70;;;;;;;18.05;79.37;97885.91;1795422;80;21444;-80
2021/08/12 03:35:15;;;;;;;6.53;4.95;;;;;;;18.05;79.81;97893.95;1795671;80;20960;-80
2021/08/12 03:37:42;;;;;;;7.10;4.90;;;;;;;18.05;79.21;97891.28;1794974;80;20968;-80
2021/08/12 03:40:11;;;;;;;9.05;5.17;;;;;;;18.05;79.28;97897.10;1793806;80;20991;-80
2021/08/12 03:42:38;;;;;;;8.10;4.45;;;;;;;18.05;79.07;97891.28;1793940;80;21374;-80
2021/08/12 03:45:06;;;;;;;9.90;5.15;;;;;;;18.10;78.94;97893.69;1793600;80;21417;-80
2021/08/12 03:47:33;;;;;;;8.63;5.00;;;;;;;18.17;78.85;97899.07;1794203;80;21026;-80
2021/08/12 03:49:59;;;;;;;6.87;4.95;;;;;;;18.14;78.88;97895.23;1795659;80;20975;-81
2021/08/12 03:52:27;;;;;;;7.47;5.20;;;;;;;18.07;79.44;97896.58;1795576;80;20912;-81
2021/08/12 03:54:53;;;;;;;8.78;5.03;;;;;;;18.02;79.12;97899.50;1795097;80;21409;-80
2021/08/12 03:57:20;;;;;;;5.92;4.85;;;;;;;17.98;79.23;97902.48;1791861;80;20979;-80
2021/08/12 03:59:47;;;;;;;7.78;4.67;;;;;;;17.99;78.84;97912.23;1790267;80;20981;-81
2021/08/12 04:02:14;;;;;;;7.12;5.17;;;;;;;17.99;78.63;97909.56;1790234;80;21000;-81
2021/08/12 04:04:40;;;;;;;6.90;5.17;;;;;;;17.95;79.69;97912.41;1790267;80;21004;-80
2021/08/12 04:07:07;;;;;;;7.60;5.47;;;;;;;17.93;78.71;97914.34;1790116;80;20988;-80
2021/08/12 04:09:36;;;;;;;8.45;5.47;;;;;;;17.88;78.70;97914.23;1790303;80;21036;-80
2021/08/12 04:12:03;;;;;;;9.55;5.45;;;;;;;17.86;78.85;97921.02;1790308;80;21458;-81
2021/08/12 04:14:30;;;;;;;8.18;5.22;;;;;;;17.83;80.22;97914.52;1790339;80;21119;-80
2021/08/12 04:16:57;;;;;;;7.62;5.22;;;;;;;17.86;78.87;97923.70;1790368;80;21040;-79
2021/08/12 04:19:25;;;;;;;7.62;5.40;;;;;;;17.88;79.56;97915.11;1791504;80;20980;-80
2021/08/12 04:21:53;;;;;;;6.17;5.12;;;;;;;17.92;78.45;97919.80;1792239;80;21023;-80
2021/08/12 04:24:20;;;;;;;7.90;5.15;;;;;;;17.90;78.84;97921.72;1791970;80;21396;-80
2021/08/12 04:26:46;;;;;;;9.80;5.42;;;;;;;17.94;78.82;97924.60;1791872;80;20964;-80
2021/08/12 04:29:13;;;;;;;7.55;5.17;;;;;;;18.02;78.60;97930.83;1790515;80;20964;-80
2021/08/12 04:31:40;;;;;;;8.58;5.30;;;;;;;18.09;78.47;97925.49;1790413;80;20981;-80
2021/08/12 04:34:07;;;;;;;7.50;4.42;;;;;;;18.23;78.20;97925.12;1790204;80;21426;-79
2021/08/12 04:36:34;;;;;;;5.97;4.10;;;;;;;18.29;77.98;97922.92;1790236;80;20992;-80
2021/08/12 04:39:00;;;;;;;6.75;4.65;;;;;;;18.38;77.57;97929.99;1791443;80;20940;-79
2021/08/12 04:41:26;;;;;;;8.25;4.50;;;;;;;18.50;77.19;97929.23;1791919;80;21413;-80
2021/08/12 04:43:53;;;;;;;9.53;5.00;;;;;;;18.59;76.67;97927.31;1791965;80;20940;-80
2021/08/12 04:46:21;;;;;;;9.48;4.65;;;;;;;18.71;76.76;97926.14;1791980;80;21035;-80
2021/08/12 04:48:48;;;;;;;7.20;4.55;;;;;;;18.79;76.13;97926.98;1790626;80;21010;-81
2021/08/12 04:51:14;;;;;;;6.65;4.60;;;;;;;18.91;75.83;97928.02;1790202;80;20993;-80
2021/08/12 04:53:42;;;;;;;24.02;17.25;;;;;;;19.02;75.80;97925.98;1790239;80;20962;-80
2021/08/12 04:56:08;;;;;;;11.78;9.43;;;;;;;19.15;75.53;97932.77;1786392;80;21020;-81
2021/08/12 04:58:35;;;;;;;5.92;4.67;;;;;;;19.19;74.63;97931.61;1775192;80;21409;-81
2021/08/12 05:01:02;;;;;;;8.40;5.03;;;;;;;19.24;74.65;97932.17;1782228;80;21083;-81
2021/08/12 05:03:29;;;;;;;8.33;5.20;;;;;;;19.29;74.54;97934.06;1782174;80;20940;-81
2021/08/12 05:06:05;;;;;;;9.10;5.35;;;;;;;19.28;74.46;97931.48;1782300;80;21028;-80
2021/08/12 05:08:32;;;;;;;6.10;4.35;;;;;;;19.35;74.46;97935.50;1774526;80;21083;-80
2021/08/12 05:10:58;;;;;;;6.15;5.08;;;;;;;19.44;74.38;97928.16;1783049;80;20961;-80
2021/08/12 05:13:26;;;;;;;8.85;5.00;;;;;;;19.53;73.57;97929.36;1767136;81;21050;-81
2021/08/12 05:15:52;;;;;;;8.58;5.55;;;;;;;19.54;73.25;97931.08;1783005;80;21387;-81
2021/08/12 05:18:18;;;;;;;10.53;5.72;;;;;;;19.64;73.41;97929.98;1773102;80;20929;-81
2021/08/12 05:20:45;;;;;;;8.23;4.97;;;;;;;19.74;72.96;97940.48;1781814;80;21012;-81
2021/08/12 05:23:12;;;;;;;6.10;5.10;;;;;;;19.86;72.69;97944.64;1782080;80;20996;-81
2021/08/12 05:25:43;;;;;;;9.85;4.95;;;;;;;19.86;71.78;97944.16;1782264;80;20984;-81
2021/08/12 05:28:07;;;;;;;6.72;5.53;;;;;;;19.90;72.21;97947.50;1776984;80;20975;-80
2021/08/12 05:30:33;;;;;;;7.53;5.40;;;;;;;19.95;71.77;97950.73;1783041;80;21015;-80
2021/08/12 05:32:59;;;;;;;8.68;5.62;;;;;;;19.97;71.83;97951.97;1767293;81;21034;-80
2021/08/12 05:35:26;;;;;;;6.42;5.70;;;;;;;19.96;72.69;97958.33;1783324;80;21039;-80
2021/08/12 05:37:53;;;;;;;11.68;5.70;;;;;;;20.02;72.19;97959.27;1770225;80;21425;-80
2021/08/12 05:40:20;;;;;;;10.20;5.40;;;;;;;20.03;72.65;97958.30;1782452;80;21004;-80
2021/08/12 05:42:46;;;;;;;10.58;5.10;;;;;;;20.14;73.00;97967.81;1782368;80;20976;-80
2021/08/12 05:45:13;;;;;;;7.20;5.03;;;;;;;20.24;72.60;97965.36;1782303;80;21056;-80
2021/08/12 05:47:40;;;;;;;7.78;5.22;;;;;;;20.30;72.31;97969.43;1780949;80;21370;-80
2021/08/12 05:50:07;;;;;;;9.18;5.80;;;;;;;20.39;72.25;97967.44;1784602;80;20992;-80
2021/08/12 05:52:37;;;;;;;9.03;5.37;;;;;;;20.44;71.67;97966.63;1732936;83;21382;-80
2021/08/12 05:55:05;;;;;;;10.80;5.35;;;;;;;20.46;71.26;97966.53;1784885;80;20989;-80
2021/08/12 05:57:32;;;;;;;7.72;5.05;;;;;;;20.46;70.70;97967.03;1746809;80;21000;-80
2021/08/12 05:59:58;;;;;;;9.08;5.30;;;;;;;20.39;70.96;97963.91;1781921;80;20926;-80
2021/08/12 06:02:25;;;;;;;7.53;5.58;;;;;;;20.41;70.96;97973.59;1785667;80;20941;-80
2021/08/12 06:04:52;;;;;;;8.90;5.15;;;;;;;20.43;70.40;97975.68;1785632;80;20968;-80
2021/08/12 06:07:19;;;;;;;10.32;5.22;;;;;;;20.46;70.12;97974.60;1785947;80;21003;-80
2021/08/12 06:09:45;;;;;;;7.08;4.83;;;;;;;20.51;70.19;97973.79;1782365;80;21023;-80
2021/08/12 06:12:12;;;;;;;8.75;4.85;;;;;;;20.57;70.08;97980.58;1785329;80;21457;-81
2021/08/12 06:14:40;;;;;;;8.23;4.90;;;;;;;20.60;69.41;97981.72;1785700;80;20996;-80
2021/08/12 06:17:08;;;;;;;6.80;4.90;;;;;;;20.68;69.40;97992.78;1785597;80;20984;-79
2021/08/12 06:19:36;;;;;;;12.60;4.83;;;;;;;20.72;68.55;97990.75;1764006;80;20995;-80
2021/08/12 06:22:03;;;;;;;10.82;4.50;;;;;;;20.82;68.86;97993.63;1756761;80;21478;-79
2021/08/12 06:24:30;;;;;;;4.95;4.45;;;;;;;20.86;68.34;97993.83;1754646;82;20953;-80
2021/08/12 06:26:57;;;;;;;9.65;4.90;;;;;;;20.99;67.99;97994.27;1754624;82;21003;-80
2021/08/12 06:29:24;;;;;;;10.45;5.08;;;;;;;21.12;68.12;97988.87;1773090;80;21412;-80
2021/08/12 06:31:50;;;;;;;6.28;4.45;;;;;;;21.27;68.37;97990.91;1785662;80;21008;-80
2021/08/12 06:34:17;;;;;;;7.53;4.53;;;;;;;21.43;68.26;97992.82;1783217;80;20969;-80
2021/08/12 06:36:44;;;;;;;9.53;5.20;;;;;;;21.60;67.45;97988.86;1785422;80;20988;-80
2021/08/12 06:39:10;;;;;;;8.73;4.45;;;;;;;21.75;67.72;97994.11;1785664;80;21545;-80
2021/08/12 06:41:37;;;;;;;8.68;4.25;;;;;;;21.90;66.08;97998.84;1785751;80;20969;-80
2021/08/12 06:44:04;;;;;;;6.28;4.12;;;;;;;22.00;66.94;97999.84;1765679;80;21019;-79
2021/08/12 06:46:31;;;;;;;7.85;4.70;;;;;;;22.07;63.83;98002.06;1754573;82;21023;-81
2021/08/12 06:48:58;;;;;;;6.30;4.75;;;;;;;22.19;63.61;98015.98;1754755;82;20980;-81
2021/08/12 06:51:24;;;;;;;5.35;4.05;;;;;;;22.35;64.29;98006.68;1754650;82;21398;-81
2021/08/12 06:53:52;;;;;;;7.67;4.75;;;;;;;22.51;63.60;98004.48;1771266;80;20969;-79
2021/08/12 06:56:18;;;;;;;6.17;4.78;;;;;;;22.67;62.80;98002.81;1783177;80;21040;-78
2021/08/12 06:58:45;;;;;;;6.05;4.20;;;;;;;22.76;61.92;97993.11;1794420;79;21032;-78
2021/08/12 07:01:12;;;;;;;4.72;4.15;;;;;;;22.79;58.53;98001.45;1819571;79;21041;-79
2021/08/12 07:03:38;;;;;;;7.90;4.67;;;;;;;22.94;60.46;97993.97;1805121;79;20980;-78
2021/08/12 07:06:06;;;;;;;6.67;3.83;;;;;;;23.05;59.86;97997.16;1747932;82;21060;-79
2021/08/12 07:08:33;;;;;;;5.22;3.58;;;;;;;23.11;56.91;98003.41;1710111;84;21056;-79
2021/08/12 07:11:00;;;;;;;5.45;3.83;;;;;;;23.12;56.41;98003.77;1731305;83;21494;-78
2021/08/12 07:13:27;;;;;;;8.30;4.53;;;;;;;23.17;56.23;98000.71;1762261;80;20973;-79
2021/08/12 07:15:54;;;;;;;6.92;4.17;;;;;;;23.23;56.51;98002.91;1785871;80;20998;-79
2021/08/12 07:18:20;;;;;;;4.55;3.77;;;;;;;23.33;56.40;98002.55;1786043;80;21033;-80
2021/08/12 07:20:48;;;;;;;6.35;4.55;;;;;;;23.38;56.22;97995.42;1785963;80;20977;-80
2021/08/12 07:23:15;;;;;;;7.00;3.87;;;;;;;23.43;55.66;98009.42;1786624;79;20959;-79
2021/08/12 07:25:42;;;;;;;5.75;3.90;;;;;;;23.51;55.12;98026.36;1767448;79;20920;-78
2021/08/12 07:28:12;;;;;;;8.48;4.60;;;;;;;23.49;54.83;98022.91;1767187;81;20977;-79
2021/08/12 07:30:38;;;;;;;5.92;3.77;;;;;;;23.54;54.92;98008.50;1787430;80;21374;-80
2021/08/12 07:33:05;;;;;;;5.30;3.75;;;;;;;23.53;54.17;98018.97;1772515;80;20972;-80
2021/08/12 07:35:33;;;;;;;9.90;5.80;;;;;;;23.65;53.47;98021.63;1765578;81;20951;-80
2021/08/12 07:38:00;;;;;;;5.95;4.20;;;;;;;23.73;53.90;98021.38;1761506;80;21027;-80
2021/08/12 07:40:27;;;;;;;4.80;3.70;;;;;;;23.79;53.12;98024.55;1785939;80;21012;-81
2021/08/12 07:42:54;;;;;;;7.12;3.85;;;;;;;23.76;52.35;98027.50;1785842;80;20956;-81
2021/08/12 07:45:20;;;;;;;6.08;3.72;;;;;;;23.90;52.39;98029.91;1785914;80;21005;-81
2021/08/12 07:47:47;;;;;;;5.85;3.70;;;;;;;23.99;52.47;98039.09;1785873;80;20965;-81
2021/08/12 07:50:14;;;;;;;4.47;3.50;;;;;;;24.02;51.28;98032.55;1785847;80;21402;-80
2021/08/12 07:52:42;;;;;;;7.22;3.85;;;;;;;24.00;51.23;98034.06;1785900;80;20948;-80
2021/08/12 07:55:10;;;;;;;4.45;3.77;;;;;;;24.02;51.25;98041.55;1754880;82;20956;-80
2021/08/12 07:57:36;;;;;;;6.72;4.35;;;;;;;24.11;51.63;98046.21;1758620;81;21039;-80
2021/08/12 08:00:06;;;;;;;5.78;4.10;;;;;;;24.22;51.39;98042.59;1759988;81;21465;-80
2021/08/12 08:02:44;;;;;;;6.15;3.95;;;;;;;24.22;51.39;98042.59;1759468;81;20957;-80
2021/08/12 08:05:16;;;;;;;6.15;4.35;;;;;;;24.28;51.33;98043.06;1761483;81;21342;-81
2021/08/12 08:07:45;;;;;;;7.50;3.95;;;;;;;24.37;51.37;98045.82;1761686;81;20987;-80
2021/08/12 08:10:15;;;;;;;7.53;4.35;;;;;;;24.27;50.49;98047.61;1761814;81;21480;-80
2021/08/12 08:12:42;;;;;;;5.28;4.42;;;;;;;24.27;50.69;98047.61;1761663;80;21422;-81
2021/08/12 08:15:11;;;;;;;6.67;5.05;;;;;;;24.27;51.14;98044.90;1790706;80;21007;-81
2021/08/12 08:17:39;;;;;;;5.75;4.30;;;;;;;24.18;50.85;98047.03;1791002;80;20992;-80
2021/08/12 08:20:09;;;;;;;8.78;4.37;;;;;;;24.18;51.59;98045.20;1791221;80;21024;-80
2021/08/12 08:22:37;;;;;;;7.15;4.22;;;;;;;24.21;51.72;98047.63;1791111;80;21000;-81
2021/08/12 08:25:09;;;;;;;7.20;4.50;;;;;;;24.21;51.12;98044.08;1792444;80;20975;-80
2021/08/12 08:27:35;;;;;;;9.45;4.80;;;;;;;24.19;50.65;98039.27;1742631;82;21011;-81
2021/08/12 08:30:04;;;;;;;5.85;4.25;;;;;;;24.19;50.65;98037.44;1742629;82;21027;-81
2021/08/12 08:32:34;;;;;;;7.33;4.92;;;;;;;24.13;50.23;98031.20;1716810;82;22232;-79
2021/08/12 08:35:01;;;;;;;18.20;15.58;;;;;;;24.18;49.90;98040.27;1741083;82;21019;-80
2021/08/12 08:37:28;;;;;;;16.93;14.65;;;;;;;24.12;50.52;98033.52;1741129;82;20983;-79
2021/08/12 08:39:54;;;;;;;6.92;4.87;;;;;;;24.12;50.52;98033.52;1741015;82;21003;-79
2021/08/12 08:42:21;;;;;;;7.97;4.70;;;;;;;24.20;49.68;98043.20;1741791;82;21034;-79
2021/08/12 08:44:51;;;;;;;6.28;4.10;;;;;;;24.33;50.50;98036.23;1742748;82;21004;-81
2021/08/12 08:47:18;;;;;;;5.08;4.20;;;;;;;24.43;50.14;98042.22;1742580;82;21116;-80
2021/08/12 08:49:47;;;;;;;5.47;4.35;;;;;;;24.43;50.14;98042.22;1741826;82;21473;-81
2021/08/12 08:52:14;;;;;;;4.72;3.98;;;;;;;24.48;50.12;98036.77;1741902;82;21441;-80
2021/08/12 08:54:43;;;;;;;5.75;4.10;;;;;;;24.55;49.15;98035.75;1740901;82;21473;-81
2021/08/12 08:57:10;;;;;;;5.97;4.20;;;;;;;24.67;48.05;98030.24;1739118;82;21070;-80
2021/08/12 08:59:37;;;;;;;5.50;3.98;;;;;;;24.67;48.05;98030.24;1790260;80;21439;-80
2021/08/12 09:02:08;;;;;;;4.25;3.67;;;;;;;24.76;47.49;98044.34;1792358;79;20970;-81
2021/08/12 09:04:38;;;;;;;6.40;4.00;;;;;;;24.75;48.04;98038.56;1786880;80;21015;-80
2021/08/12 09:07:09;;;;;;;7.85;3.95;;;;;;;24.78;46.39;98052.70;1764252;81;21003;-81
2021/08/12 09:09:38;;;;;;;7.22;4.10;;;;;;;24.88;47.78;98042.44;1791907;80;21433;-81
2021/08/12 09:12:06;;;;;;;4.12;3.50;;;;;;;24.91;46.58;98041.66;1774084;80;21311;-81
2021/08/12 09:14:42;;;;;;;4.97;3.87;;;;;;;25.01;46.94;98031.36;1795370;80;21028;-81
2021/08/12 09:17:23;;;;;;;4.92;3.85;;;;;;;25.13;46.72;98030.77;1795484;80;20969;-81
2021/08/12 09:20:15;;;;;;;6.22;3.87;;;;;;;25.21;45.35;98037.72;1824155;78;21043;-81
2021/08/12 09:23:02;;;;;;;4.83;3.65;;;;;;;25.27;46.07;98031.73;1805453;79;20944;-81
2021/08/12 09:25:50;;;;;;;5.62;4.00;;;;;;;25.31;45.33;98033.67;1764248;81;20996;-81
2021/08/12 09:28:25;;;;;;;5.00;3.77;;;;;;;25.37;45.16;98044.47;1790450;80;21066;-81
2021/08/12 09:31:05;;;;;;;6.35;3.70;;;;;;;25.34;43.28;98041.54;1764247;81;21087;-81
2021/08/12 09:33:52;;;;;;;6.90;4.05;;;;;;;25.39;44.87;98041.11;1794905;79;21003;-80
2021/08/12 09:36:36;;;;;;;5.47;3.58;;;;;;;25.47;44.57;98045.35;1791173;80;21409;-82
2021/08/12 09:39:22;;;;;;;5.47;3.62;;;;;;;25.56;43.43;98043.67;1764347;81;21048;-81
2021/08/12 09:41:53;;;;;;;6.40;4.80;;;;;;;25.63;44.06;98042.63;1790321;80;21308;-81
2021/08/12 09:44:42;;;;;;;3.72;3.27;;;;;;;25.70;44.56;98047.86;1762612;81;21003;-81
2021/08/12 09:47:14;;;;;;;3.77;3.22;;;;;;;25.62;38.21;98051.77;1762640;81;20959;-81
2021/08/12 09:49:49;;;;;;;4.83;3.17;;;;;;;25.65;40.24;98050.11;1762689;81;21006;-81
2021/08/12 09:52:34;;;;;;;5.15;3.47;;;;;;;25.68;41.72;98054.78;1774289;80;21000;-82
2021/08/12 09:55:14;;;;;;;6.12;3.85;;;;;;;25.79;41.19;98047.51;1795599;80;21011;-82
2021/08/12 09:57:48;;;;;;;5.08;4.17;;;;;;;25.92;42.65;98038.59;1795315;80;21008;-81
2021/08/12 10:00:26;;;;;;;4.10;3.67;;;;;;;26.08;43.59;98038.00;1789018;80;21361;-82
2021/08/12 10:02:53;;;;;;;5.85;3.72;;;;;;;26.26;43.42;98052.73;1790171;80;21435;-81
2021/08/12 10:05:20;;;;;;;4.15;3.70;;;;;;;26.41;42.75;98043.14;1790194;80;21006;-81
2021/08/12 10:07:49;;;;;;;5.05;3.50;;;;;;;26.43;41.57;98050.66;1790362;80;21029;-82
2021/08/12 10:10:21;;;;;;;6.85;4.45;;;;;;;26.34;40.88;98055.11;1791682;79;20948;-82
2021/08/12 10:12:58;;;;;;;5.92;3.87;;;;;;;26.33;41.85;98055.25;1757264;80;20981;-81
2021/08/12 10:15:34;;;;;;;4.17;3.55;;;;;;;26.32;40.43;98050.31;1730792;83;21053;-82
2021/08/12 10:18:04;;;;;;;5.42;3.75;;;;;;;26.40;41.42;98056.89;1732536;83;21479;-81
2021/08/12 10:20:34;;;;;;;4.37;3.70;;;;;;;26.37;40.46;98060.76;1769232;80;21386;-81
2021/08/12 10:23:04;;;;;;;12.13;8.08;;;;;;;26.39;40.70;98057.87;1790535;80;21004;-80
2021/08/12 10:25:36;;;;;;;5.10;3.83;;;;;;;26.47;41.06;98064.31;1790291;80;20996;-80
2021/08/12 10:28:07;;;;;;;5.30;3.90;;;;;;;26.57;40.52;98060.73;1790450;80;21003;-81
2021/08/12 10:30:37;;;;;;;4.22;3.45;;;;;;;26.62;39.68;98052.47;1790748;79;20945;-80
2021/08/12 10:33:08;;;;;;;6.78;3.98;;;;;;;26.70;40.94;98057.69;1792013;80;21505;-81
2021/08/12 10:35:38;;;;;;;4.03;3.62;;;;;;;26.73;40.10;98067.76;1792046;80;21361;-81
2021/08/12 10:38:04;;;;;;;4.62;3.30;;;;;;;26.71;40.15;98066.19;1791965;80;21337;-81
2021/08/12 10:40:35;;;;;;;5.85;2.90;;;;;;;26.75;38.35;98071.70;1790844;80;20948;-81
2021/08/12 10:43:03;;;;;;;4.40;3.25;;;;;;;26.77;38.84;98061.52;1791246;80;21038;-82
2021/08/12 10:45:31;;;;;;;4.20;3.10;;;;;;;26.96;39.40;98063.37;1791944;80;20987;-81
2021/08/12 10:48:00;;;;;;;4.90;2.92;;;;;;;27.34;37.74;98066.55;1792107;80;20972;-82
2021/08/12 10:50:37;;;;;;;7.40;4.87;;;;;;;28.39;37.07;98065.31;1790414;80;21374;-82
2021/08/12 10:53:14;;;;;;;9.85;6.22;;;;;;;29.46;35.43;98061.50;1790160;80;21031;-81
2021/08/12 10:56:00;;;;;;;4.42;3.35;;;;;;;29.93;34.74;98059.28;1790043;80;21016;-81
2021/08/12 10:58:34;;;;;;;3.20;2.90;;;;;;;30.68;32.63;98051.97;1784683;79;21016;-81
2021/08/12 11:01:07;;;;;;;4.10;3.08;;;;;;;31.86;32.83;98051.38;1732451;83;21045;-81
2021/08/12 11:03:43;;;;;;;3.87;2.77;;;;;;;32.76;30.89;98055.81;1784969;80;21480;-81
2021/08/12 11:06:21;;;;;;;3.30;3.00;;;;;;;33.35;28.15;98054.69;1784659;80;21023;-80
2021/08/12 11:09:02;;;;;;;4.58;3.10;;;;;;;33.97;27.78;98042.84;1784374;80;20976;-80
2021/08/12 11:11:32;;;;;;;3.83;3.12;;;;;;;34.33;25.38;98046.59;1782447;80;21517;-80
2021/08/12 11:14:06;;;;;;;3.83;3.30;;;;;;;34.39;26.41;98048.23;1782964;80;21094;-80
2021/08/12 11:16:49;;;;;;;4.58;3.17;;;;;;;34.13;25.03;98061.55;1783229;80;20997;-80
2021/08/12 11:19:28;;;;;;;7.97;3.52;;;;;;;34.72;25.57;98046.30;1783975;80;20968;-81
2021/08/12 11:21:56;;;;;;;3.55;2.75;;;;;;;35.15;26.36;98053.08;1785025;80;21027;-80
2021/08/12 11:24:28;;;;;;;5.28;2.67;;;;;;;35.82;24.71;98058.56;1784890;80;20948;-80
2021/08/12 11:27:03;;;;;;;4.17;3.10;;;;;;;35.54;22.78;98059.52;1785115;80;20980;-81
2021/08/12 11:29:34;;;;;;;3.92;2.92;;;;;;;36.15;25.24;98051.47;1784013;80;21004;-81
2021/08/12 11:32:13;;;;;;;3.93;3.13;;;;;;;36.57;23.92;98050.73;1783346;80;21008;-81
2021/08/12 11:34:57;;;;;;;5.08;3.85;;;;;;;36.77;23.82;98056.80;1782984;80;21004;-81
2021/08/12 11:37:27;;;;;;;15.23;13.70;;;;;;;36.81;21.87;98053.06;1783357;80;21024;-80
2021/08/12 11:40:04;;;;;;;3.98;3.52;;;;;;;36.85;22.59;98054.34;1784145;80;20948;-81
2021/08/12 11:42:43;;;;;;;3.50;3.20;;;;;;;37.17;23.15;98044.00;1783002;80;21020;-80
2021/08/12 11:45:19;;;;;;;4.83;3.08;;;;;;;37.09;22.93;98050.58;1783101;80;21079;-80